sensor_id;sensor_type;location;lat;lon;timestamp;P1;durP1;ratioP1;P2;durP2;ratioP2
51080;SDS011;37130;55.670;37.596;2023-06-14T06:36:04;0.30;;;0.30;;
51080;SDS011;37130;55.670;37.596;2023-06-14T06:38:32;0.20;;;0.20;;
51080;SDS011;37130;55.670;37.596;2023-06-14T06:41:00;0.30;;;0.30;;
51080;SDS011;37130;55.670;37.596;2023-06-14T06:43:27;0.40;;;0.40;;
51080;SDS011;37130;55.670;37.596;2023-06-14T06:45:57;0.38;;;0.38;;
51080;SDS011;37130;55.670;37.596;2023-06-14T06:48:24;0.40;;;0.40;;
51080;SDS011;37130;55.670;37.596;2023-06-14T06:50:52;0.43;;;0.43;;
51080;SDS011;37130;55.670;37.596;2023-06-14T06:53:19;0.40;;;0.40;;
51080;SDS011;37130;55.670;37.596;2023-06-14T06:58:32;0.32;;;0.32;;
51080;SDS011;37130;55.670;37.596;2023-06-14T07:01:00;0.40;;;0.40;;
51080;SDS011;37130;55.670;37.596;2023-06-14T07:03:27;0.40;;;0.40;;
51080;SDS011;37130;55.670;37.596;2023-06-14T07:05:56;0.40;;;0.40;;
51080;SDS011;37130;55.670;37.596;2023-06-14T07:08:23;0.30;;;0.30;;
51080;SDS011;37130;55.670;37.596;2023-06-14T07:10:51;0.30;;;0.30;;
51080;SDS011;37130;55.670;37.596;2023-06-14T07:13:18;0.30;;;0.30;;
51080;SDS011;37130;55.670;37.596;2023-06-14T07:15:46;0.30;;;0.30;;
51080;SDS011;37130;55.670;37.596;2023-06-14T07:18:13;0.30;;;0.30;;
51080;SDS011;37130;55.670;37.596;2023-06-14T07:20:42;0.30;;;0.30;;
51080;SDS011;37130;55.670;37.596;2023-06-14T07:23:10;0.30;;;0.30;;
51080;SDS011;37130;55.670;37.596;2023-06-14T07:25:37;0.30;;;0.30;;
51080;SDS011;37130;55.670;37.596;2023-06-14T07:28:05;0.30;;;0.30;;
51080;SDS011;37130;55.670;37.596;2023-06-14T07:30:32;0.30;;;0.30;;
51080;SDS011;37130;55.670;37.596;2023-06-14T07:32:59;0.40;;;0.40;;
51080;SDS011;37130;55.670;37.596;2023-06-14T07:35:27;0.40;;;0.40;;
51080;SDS011;37130;55.670;37.596;2023-06-14T07:37:55;0.40;;;0.40;;
51080;SDS011;37130;55.670;37.596;2023-06-14T07:40:22;0.40;;;0.40;;
51080;SDS011;37130;55.670;37.596;2023-06-14T07:42:50;0.43;;;0.43;;
51080;SDS011;37130;55.670;37.596;2023-06-14T07:45:17;0.40;;;0.40;;
51080;SDS011;37130;55.670;37.596;2023-06-14T07:47:46;0.40;;;0.40;;
51080;SDS011;37130;55.670;37.596;2023-06-14T07:50:14;0.50;;;0.50;;
51080;SDS011;37130;55.670;37.596;2023-06-14T07:52:41;0.40;;;0.40;;
51080;SDS011;37130;55.670;37.596;2023-06-14T07:55:08;0.40;;;0.40;;
51080;SDS011;37130;55.670;37.596;2023-06-14T07:57:36;0.40;;;0.40;;
51080;SDS011;37130;55.670;37.596;2023-06-14T08:00:03;0.40;;;0.40;;
51080;SDS011;37130;55.670;37.596;2023-06-14T08:02:43;0.40;;;0.40;;
51080;SDS011;37130;55.670;37.596;2023-06-14T08:05:12;0.40;;;0.40;;
51080;SDS011;37130;55.670;37.596;2023-06-14T08:07:40;0.40;;;0.40;;
51080;SDS011;37130;55.670;37.596;2023-06-14T08:10:07;0.30;;;0.30;;
51080;SDS011;37130;55.670;37.596;2023-06-14T08:12:36;0.30;;;0.30;;
51080;SDS011;37130;55.670;37.596;2023-06-14T08:15:04;0.20;;;0.20;;
51080;SDS011;37130;55.670;37.596;2023-06-14T08:17:40;0.30;;;0.30;;
51080;SDS011;37130;55.670;37.596;2023-06-14T08:20:09;0.30;;;0.30;;
51080;SDS011;37130;55.670;37.596;2023-06-14T08:22:38;0.30;;;0.30;;
51080;SDS011;37130;55.670;37.596;2023-06-14T08:25:06;0.30;;;0.30;;
51080;SDS011;37130;55.670;37.596;2023-06-14T08:27:34;0.38;;;0.38;;
51080;SDS011;37130;55.670;37.596;2023-06-14T08:30:02;0.35;;;0.35;;
51080;SDS011;37130;55.670;37.596;2023-06-14T08:32:30;0.40;;;0.40;;
51080;SDS011;37130;55.670;37.596;2023-06-14T08:34:58;0.40;;;0.40;;
51080;SDS011;37130;55.670;37.596;2023-06-14T08:37:31;0.30;;;0.30;;
51080;SDS011;37130;55.670;37.596;2023-06-14T08:40:00;0.28;;;0.28;;
51080;SDS011;37130;55.670;37.596;2023-06-14T08:42:32;0.20;;;0.20;;
51080;SDS011;37130;55.670;37.596;2023-06-14T08:45:01;0.20;;;0.20;;
51080;SDS011;37130;55.670;37.596;2023-06-14T08:47:29;0.10;;;0.10;;
51080;SDS011;37130;55.670;37.596;2023-06-14T08:50:08;0.10;;;0.10;;
51080;SDS011;37130;55.670;37.596;2023-06-14T08:52:54;0.00;;;0.00;;
51080;SDS011;37130;55.670;37.596;2023-06-14T08:55:31;0.00;;;0.00;;
51080;SDS011;37130;55.670;37.596;2023-06-14T08:58:03;0.00;;;0.00;;
51080;SDS011;37130;55.670;37.596;2023-06-14T09:00:32;0.00;;;0.00;;
51080;SDS011;37130;55.670;37.596;2023-06-14T09:03:00;0.00;;;0.00;;
51080;SDS011;37130;55.670;37.596;2023-06-14T09:05:28;0.00;;;0.00;;
51080;SDS011;37130;55.670;37.596;2023-06-14T09:07:56;0.00;;;0.00;;
51080;SDS011;37130;55.670;37.596;2023-06-14T09:10:32;0.00;;;0.00;;
51080;SDS011;37130;55.670;37.596;2023-06-14T09:13:05;0.00;;;0.00;;
51080;SDS011;37130;55.670;37.596;2023-06-14T09:15:34;0.00;;;0.00;;
51080;SDS011;37130;55.670;37.596;2023-06-14T09:18:02;0.00;;;0.00;;
51080;SDS011;37130;55.670;37.596;2023-06-14T09:20:30;0.00;;;0.00;;
51080;SDS011;37130;55.670;37.596;2023-06-14T09:23:00;0.00;;;0.00;;
51080;SDS011;37130;55.670;37.596;2023-06-14T09:25:28;0.00;;;0.00;;
51080;SDS011;37130;55.670;37.596;2023-06-14T09:28:08;0.00;;;0.00;;
51080;SDS011;37130;55.670;37.596;2023-06-14T09:30:37;0.00;;;0.00;;
51080;SDS011;37130;55.670;37.596;2023-06-14T09:33:05;0.00;;;0.00;;
51080;SDS011;37130;55.670;37.596;2023-06-14T09:35:33;0.00;;;0.00;;
51080;SDS011;37130;55.670;37.596;2023-06-14T09:38:01;0.00;;;0.00;;
51080;SDS011;37130;55.670;37.596;2023-06-14T09:40:28;0.00;;;0.00;;
51080;SDS011;37130;55.670;37.596;2023-06-14T09:43:01;0.00;;;0.00;;
51080;SDS011;37130;55.670;37.596;2023-06-14T09:45:33;0.00;;;0.00;;
51080;SDS011;37130;55.670;37.596;2023-06-14T09:48:00;0.00;;;0.00;;
51080;SDS011;37130;55.670;37.596;2023-06-14T09:50:34;0.00;;;0.00;;
51080;SDS011;37130;55.670;37.596;2023-06-14T09:53:02;0.00;;;0.00;;
51080;SDS011;37130;55.670;37.596;2023-06-14T09:55:35;0.00;;;0.00;;
51080;SDS011;37130;55.670;37.596;2023-06-14T09:58:06;0.00;;;0.00;;
51080;SDS011;37130;55.670;37.596;2023-06-14T10:00:35;0.00;;;0.00;;
51080;SDS011;37130;55.670;37.596;2023-06-14T10:03:13;0.00;;;0.00;;
51080;SDS011;37130;55.670;37.596;2023-06-14T10:05:44;0.00;;;0.00;;
51080;SDS011;37130;55.670;37.596;2023-06-14T10:08:15;0.00;;;0.00;;
51080;SDS011;37130;55.670;37.596;2023-06-14T10:10:45;0.00;;;0.00;;
51080;SDS011;37130;55.670;37.596;2023-06-14T10:13:13;0.00;;;0.00;;
51080;SDS011;37130;55.670;37.596;2023-06-14T10:15:44;0.00;;;0.00;;
51080;SDS011;37130;55.670;37.596;2023-06-14T10:18:17;0.00;;;0.00;;
51080;SDS011;37130;55.670;37.596;2023-06-14T10:23:37;0.00;;;0.00;;
51080;SDS011;37130;55.670;37.596;2023-06-14T10:26:13;0.00;;;0.00;;
51080;SDS011;37130;55.670;37.596;2023-06-14T10:28:56;0.00;;;0.00;;
51080;SDS011;37130;55.670;37.596;2023-06-14T10:31:45;0.00;;;0.00;;
51080;SDS011;37130;55.670;37.596;2023-06-14T10:34:26;0.00;;;0.00;;
51080;SDS011;37130;55.670;37.596;2023-06-14T10:37:05;0.00;;;0.00;;
51080;SDS011;37130;55.670;37.596;2023-06-14T10:39:40;0.00;;;0.00;;
51080;SDS011;37130;55.670;37.596;2023-06-14T10:42:14;0.00;;;0.00;;
51080;SDS011;37130;55.670;37.596;2023-06-14T10:44:49;0.00;;;0.00;;
51080;SDS011;37130;55.670;37.596;2023-06-14T10:50:03;0.00;;;0.00;;
51080;SDS011;37130;55.670;37.596;2023-06-14T10:52:33;0.00;;;0.00;;
51080;SDS011;37130;55.670;37.596;2023-06-14T10:55:11;0.00;;;0.00;;
51080;SDS011;37130;55.670;37.596;2023-06-14T11:00:22;0.00;;;0.00;;
51080;SDS011;37130;55.670;37.596;2023-06-14T11:05:48;0.00;;;0.00;;
51080;SDS011;37130;55.670;37.596;2023-06-14T11:10:54;0.00;;;0.00;;
51080;SDS011;37130;55.670;37.596;2023-06-14T11:13:26;0.00;;;0.00;;
51080;SDS011;37130;55.670;37.596;2023-06-14T11:15:57;0.00;;;0.00;;
51080;SDS011;37130;55.670;37.596;2023-06-14T11:18:25;0.00;;;0.00;;
51080;SDS011;37130;55.670;37.596;2023-06-14T11:20:54;0.00;;;0.00;;
51080;SDS011;37130;55.670;37.596;2023-06-14T11:23:22;0.00;;;0.00;;
51080;SDS011;37130;55.670;37.596;2023-06-14T11:25:52;0.00;;;0.00;;
51080;SDS011;37130;55.670;37.596;2023-06-14T11:28:20;0.00;;;0.00;;
51080;SDS011;37130;55.670;37.596;2023-06-14T11:30:51;0.00;;;0.00;;
51080;SDS011;37130;55.670;37.596;2023-06-14T11:33:27;0.00;;;0.00;;
51080;SDS011;37130;55.670;37.596;2023-06-14T11:35:54;0.00;;;0.00;;
51080;SDS011;37130;55.670;37.596;2023-06-14T11:38:22;0.00;;;0.00;;
51080;SDS011;37130;55.670;37.596;2023-06-14T11:40:49;0.00;;;0.00;;
51080;SDS011;37130;55.670;37.596;2023-06-14T11:43:17;0.00;;;0.00;;
51080;SDS011;37130;55.670;37.596;2023-06-14T11:45:47;0.00;;;0.00;;
51080;SDS011;37130;55.670;37.596;2023-06-14T11:48:37;0.00;;;0.00;;
51080;SDS011;37130;55.670;37.596;2023-06-14T11:51:08;0.00;;;0.00;;
51080;SDS011;37130;55.670;37.596;2023-06-14T11:53:36;0.00;;;0.00;;
51080;SDS011;37130;55.670;37.596;2023-06-14T11:56:04;0.00;;;0.00;;
51080;SDS011;37130;55.670;37.596;2023-06-14T11:58:32;0.00;;;0.00;;
51080;SDS011;37130;55.670;37.596;2023-06-14T12:01:00;0.00;;;0.00;;
51080;SDS011;37130;55.670;37.596;2023-06-14T12:03:30;0.00;;;0.00;;
51080;SDS011;37130;55.670;37.596;2023-06-14T12:08:33;0.00;;;0.00;;
51080;SDS011;37130;55.670;37.596;2023-06-14T12:11:06;0.00;;;0.00;;
51080;SDS011;37130;55.670;37.596;2023-06-14T12:13:40;0.00;;;0.00;;
51080;SDS011;37130;55.670;37.596;2023-06-14T12:16:09;0.00;;;0.00;;
51080;SDS011;37130;55.670;37.596;2023-06-14T12:18:38;0.00;;;0.00;;
51080;SDS011;37130;55.670;37.596;2023-06-14T12:21:06;0.00;;;0.00;;
51080;SDS011;37130;55.670;37.596;2023-06-14T12:23:45;0.00;;;0.00;;
51080;SDS011;37130;55.670;37.596;2023-06-14T12:26:14;0.00;;;0.00;;
51080;SDS011;37130;55.670;37.596;2023-06-14T12:28:42;0.00;;;0.00;;
51080;SDS011;37130;55.670;37.596;2023-06-14T12:31:12;0.00;;;0.00;;
51080;SDS011;37130;55.670;37.596;2023-06-14T12:33:40;0.00;;;0.00;;
51080;SDS011;37130;55.670;37.596;2023-06-14T12:36:08;0.00;;;0.00;;
51080;SDS011;37130;55.670;37.596;2023-06-14T12:38:37;0.00;;;0.00;;
51080;SDS011;37130;55.670;37.596;2023-06-14T12:41:05;0.00;;;0.00;;
51080;SDS011;37130;55.670;37.596;2023-06-14T12:43:33;0.00;;;0.00;;
51080;SDS011;37130;55.670;37.596;2023-06-14T12:46:01;0.00;;;0.00;;
51080;SDS011;37130;55.670;37.596;2023-06-14T12:48:28;0.00;;;0.00;;
51080;SDS011;37130;55.670;37.596;2023-06-14T12:50:58;0.00;;;0.00;;
51080;SDS011;37130;55.670;37.596;2023-06-14T12:53:25;0.00;;;0.00;;
51080;SDS011;37130;55.670;37.596;2023-06-14T12:55:53;0.00;;;0.00;;
51080;SDS011;37130;55.670;37.596;2023-06-14T12:58:21;0.00;;;0.00;;
51080;SDS011;37130;55.670;37.596;2023-06-14T13:00:50;0.00;;;0.00;;
51080;SDS011;37130;55.670;37.596;2023-06-14T13:03:18;0.00;;;0.00;;
51080;SDS011;37130;55.670;37.596;2023-06-14T13:05:45;0.00;;;0.00;;
51080;SDS011;37130;55.670;37.596;2023-06-14T13:08:13;0.00;;;0.00;;
51080;SDS011;37130;55.670;37.596;2023-06-14T13:10:40;0.00;;;0.00;;
51080;SDS011;37130;55.670;37.596;2023-06-14T13:13:08;0.00;;;0.00;;
51080;SDS011;37130;55.670;37.596;2023-06-14T13:15:35;0.00;;;0.00;;
51080;SDS011;37130;55.670;37.596;2023-06-14T13:18:03;0.00;;;0.00;;
51080;SDS011;37130;55.670;37.596;2023-06-14T13:20:30;0.00;;;0.00;;
51080;SDS011;37130;55.670;37.596;2023-06-14T13:22:58;0.00;;;0.00;;
51080;SDS011;37130;55.670;37.596;2023-06-14T13:25:26;0.00;;;0.00;;
51080;SDS011;37130;55.670;37.596;2023-06-14T13:27:54;0.00;;;0.00;;
51080;SDS011;37130;55.670;37.596;2023-06-14T13:30:21;0.00;;;0.00;;
51080;SDS011;37130;55.670;37.596;2023-06-14T13:32:49;0.00;;;0.00;;
51080;SDS011;37130;55.670;37.596;2023-06-14T13:35:19;0.00;;;0.00;;
51080;SDS011;37130;55.670;37.596;2023-06-14T13:37:46;0.00;;;0.00;;
51080;SDS011;37130;55.670;37.596;2023-06-14T13:40:14;0.00;;;0.00;;
51080;SDS011;37130;55.670;37.596;2023-06-14T13:42:43;0.00;;;0.00;;
51080;SDS011;37130;55.670;37.596;2023-06-14T13:45:10;0.00;;;0.00;;
51080;SDS011;37130;55.670;37.596;2023-06-14T13:47:38;0.00;;;0.00;;
51080;SDS011;37130;55.670;37.596;2023-06-14T13:50:07;0.00;;;0.00;;
51080;SDS011;37130;55.670;37.596;2023-06-14T13:52:35;0.00;;;0.00;;
51080;SDS011;37130;55.670;37.596;2023-06-14T13:55:02;0.00;;;0.00;;
51080;SDS011;37130;55.670;37.596;2023-06-14T13:57:30;0.00;;;0.00;;
51080;SDS011;37130;55.670;37.596;2023-06-14T13:59:58;0.00;;;0.00;;
51080;SDS011;37130;55.670;37.596;2023-06-14T14:02:38;0.00;;;0.00;;
51080;SDS011;37130;55.670;37.596;2023-06-14T14:05:07;0.00;;;0.00;;
51080;SDS011;37130;55.670;37.596;2023-06-14T14:07:35;0.00;;;0.00;;
51080;SDS011;37130;55.670;37.596;2023-06-14T14:10:03;0.00;;;0.00;;
51080;SDS011;37130;55.670;37.596;2023-06-14T14:12:31;0.00;;;0.00;;
51080;SDS011;37130;55.670;37.596;2023-06-14T14:14:59;0.00;;;0.00;;
51080;SDS011;37130;55.670;37.596;2023-06-14T14:17:26;0.00;;;0.00;;
51080;SDS011;37130;55.670;37.596;2023-06-14T14:19:53;0.00;;;0.00;;
51080;SDS011;37130;55.670;37.596;2023-06-14T14:22:21;0.00;;;0.00;;
51080;SDS011;37130;55.670;37.596;2023-06-14T14:24:48;0.00;;;0.00;;
51080;SDS011;37130;55.670;37.596;2023-06-14T14:27:16;0.00;;;0.00;;
51080;SDS011;37130;55.670;37.596;2023-06-14T14:29:43;0.00;;;0.00;;
51080;SDS011;37130;55.670;37.596;2023-06-14T14:32:11;0.00;;;0.00;;
51080;SDS011;37130;55.670;37.596;2023-06-14T14:34:41;0.00;;;0.00;;
51080;SDS011;37130;55.670;37.596;2023-06-14T14:37:08;0.00;;;0.00;;
51080;SDS011;37130;55.670;37.596;2023-06-14T14:39:36;0.00;;;0.00;;
51080;SDS011;37130;55.670;37.596;2023-06-14T14:42:04;0.00;;;0.00;;
51080;SDS011;37130;55.670;37.596;2023-06-14T14:44:48;0.00;;;0.00;;
51080;SDS011;37130;55.670;37.596;2023-06-14T14:47:16;0.00;;;0.00;;
51080;SDS011;37130;55.670;37.596;2023-06-14T14:49:44;0.00;;;0.00;;
51080;SDS011;37130;55.670;37.596;2023-06-14T14:52:11;0.00;;;0.00;;
51080;SDS011;37130;55.670;37.596;2023-06-14T14:54:49;0.00;;;0.00;;
51080;SDS011;37130;55.670;37.596;2023-06-14T14:57:17;0.00;;;0.00;;
51080;SDS011;37130;55.670;37.596;2023-06-14T14:59:45;0.00;;;0.00;;
51080;SDS011;37130;55.670;37.596;2023-06-14T15:02:12;0.00;;;0.00;;
51080;SDS011;37130;55.670;37.596;2023-06-14T15:04:39;0.00;;;0.00;;
51080;SDS011;37130;55.670;37.596;2023-06-14T15:07:07;0.00;;;0.00;;
51080;SDS011;37130;55.670;37.596;2023-06-14T15:09:34;0.00;;;0.00;;
51080;SDS011;37130;55.670;37.596;2023-06-14T15:12:01;0.00;;;0.00;;
51080;SDS011;37130;55.670;37.596;2023-06-14T15:14:29;0.00;;;0.00;;
51080;SDS011;37130;55.670;37.596;2023-06-14T15:16:57;0.00;;;0.00;;
51080;SDS011;37130;55.670;37.596;2023-06-14T15:19:25;0.00;;;0.00;;
51080;SDS011;37130;55.670;37.596;2023-06-14T15:21:53;0.00;;;0.00;;
51080;SDS011;37130;55.670;37.596;2023-06-14T15:24:20;0.00;;;0.00;;
51080;SDS011;37130;55.670;37.596;2023-06-14T15:27:03;0.00;;;0.00;;
51080;SDS011;37130;55.670;37.596;2023-06-14T15:29:31;0.00;;;0.00;;
51080;SDS011;37130;55.670;37.596;2023-06-14T15:32:00;0.00;;;0.00;;
51080;SDS011;37130;55.670;37.596;2023-06-14T15:34:28;0.00;;;0.00;;
51080;SDS011;37130;55.670;37.596;2023-06-14T15:36:55;0.00;;;0.00;;
51080;SDS011;37130;55.670;37.596;2023-06-14T15:39:23;0.00;;;0.00;;
51080;SDS011;37130;55.670;37.596;2023-06-14T15:41:51;0.00;;;0.00;;
51080;SDS011;37130;55.670;37.596;2023-06-14T15:44:19;0.00;;;0.00;;
51080;SDS011;37130;55.670;37.596;2023-06-14T15:46:46;0.00;;;0.00;;
51080;SDS011;37130;55.670;37.596;2023-06-14T15:49:16;0.00;;;0.00;;
51080;SDS011;37130;55.670;37.596;2023-06-14T15:51:45;0.00;;;0.00;;
51080;SDS011;37130;55.670;37.596;2023-06-14T15:54:12;0.00;;;0.00;;
51080;SDS011;37130;55.670;37.596;2023-06-14T15:56:40;0.00;;;0.00;;
51080;SDS011;37130;55.670;37.596;2023-06-14T15:59:07;0.00;;;0.00;;
51080;SDS011;37130;55.670;37.596;2023-06-14T16:01:35;0.00;;;0.00;;
51080;SDS011;37130;55.670;37.596;2023-06-14T16:04:03;0.00;;;0.00;;
51080;SDS011;37130;55.670;37.596;2023-06-14T16:06:31;0.00;;;0.00;;
51080;SDS011;37130;55.670;37.596;2023-06-14T16:08:59;0.00;;;0.00;;
51080;SDS011;37130;55.670;37.596;2023-06-14T16:11:26;0.00;;;0.00;;
51080;SDS011;37130;55.670;37.596;2023-06-14T16:13:54;0.00;;;0.00;;
51080;SDS011;37130;55.670;37.596;2023-06-14T16:16:22;0.00;;;0.00;;
51080;SDS011;37130;55.670;37.596;2023-06-14T16:18:50;0.00;;;0.00;;
51080;SDS011;37130;55.670;37.596;2023-06-14T16:21:17;0.00;;;0.00;;
51080;SDS011;37130;55.670;37.596;2023-06-14T16:23:44;0.00;;;0.00;;
51080;SDS011;37130;55.670;37.596;2023-06-14T16:26:12;0.00;;;0.00;;
51080;SDS011;37130;55.670;37.596;2023-06-14T16:28:40;0.00;;;0.00;;
51080;SDS011;37130;55.670;37.596;2023-06-14T16:31:11;0.10;;;0.00;;
51080;SDS011;37130;55.670;37.596;2023-06-14T16:33:41;0.00;;;0.00;;
51080;SDS011;37130;55.670;37.596;2023-06-14T16:36:09;0.00;;;0.00;;
51080;SDS011;37130;55.670;37.596;2023-06-14T16:38:36;0.00;;;0.00;;
51080;SDS011;37130;55.670;37.596;2023-06-14T16:41:03;0.00;;;0.00;;
51080;SDS011;37130;55.670;37.596;2023-06-14T16:43:31;0.00;;;0.00;;
51080;SDS011;37130;55.670;37.596;2023-06-14T16:45:59;0.00;;;0.00;;
51080;SDS011;37130;55.670;37.596;2023-06-14T16:48:26;0.00;;;0.00;;
51080;SDS011;37130;55.670;37.596;2023-06-14T16:50:54;0.00;;;0.00;;
51080;SDS011;37130;55.670;37.596;2023-06-14T16:53:22;0.00;;;0.00;;
51080;SDS011;37130;55.670;37.596;2023-06-14T16:55:49;0.00;;;0.00;;
51080;SDS011;37130;55.670;37.596;2023-06-14T16:58:17;0.00;;;0.00;;
51080;SDS011;37130;55.670;37.596;2023-06-14T17:00:44;0.00;;;0.00;;
51080;SDS011;37130;55.670;37.596;2023-06-14T17:03:11;0.00;;;0.00;;
51080;SDS011;37130;55.670;37.596;2023-06-14T17:05:52;0.00;;;0.00;;
51080;SDS011;37130;55.670;37.596;2023-06-14T17:08:21;0.00;;;0.00;;
51080;SDS011;37130;55.670;37.596;2023-06-14T17:10:48;0.00;;;0.00;;
51080;SDS011;37130;55.670;37.596;2023-06-14T17:13:16;0.00;;;0.00;;
51080;SDS011;37130;55.670;37.596;2023-06-14T17:15:44;0.00;;;0.00;;
51080;SDS011;37130;55.670;37.596;2023-06-14T17:18:12;0.00;;;0.00;;
51080;SDS011;37130;55.670;37.596;2023-06-14T17:20:39;0.00;;;0.00;;
51080;SDS011;37130;55.670;37.596;2023-06-14T17:23:06;0.00;;;0.00;;
51080;SDS011;37130;55.670;37.596;2023-06-14T17:25:34;0.00;;;0.00;;
51080;SDS011;37130;55.670;37.596;2023-06-14T17:28:01;0.00;;;0.00;;
51080;SDS011;37130;55.670;37.596;2023-06-14T17:30:30;0.00;;;0.00;;
51080;SDS011;37130;55.670;37.596;2023-06-14T17:32:58;0.10;;;0.00;;
51080;SDS011;37130;55.670;37.596;2023-06-14T17:35:26;0.00;;;0.00;;
51080;SDS011;37130;55.670;37.596;2023-06-14T17:37:53;0.00;;;0.00;;
51080;SDS011;37130;55.670;37.596;2023-06-14T17:40:20;0.00;;;0.00;;
51080;SDS011;37130;55.670;37.596;2023-06-14T17:42:48;0.00;;;0.00;;
51080;SDS011;37130;55.670;37.596;2023-06-14T17:45:15;0.00;;;0.00;;
51080;SDS011;37130;55.670;37.596;2023-06-14T17:47:43;0.00;;;0.00;;
51080;SDS011;37130;55.670;37.596;2023-06-14T17:50:10;0.00;;;0.00;;
51080;SDS011;37130;55.670;37.596;2023-06-14T17:52:37;0.00;;;0.00;;
51080;SDS011;37130;55.670;37.596;2023-06-14T17:55:05;0.00;;;0.00;;
51080;SDS011;37130;55.670;37.596;2023-06-14T17:57:32;0.00;;;0.00;;
51080;SDS011;37130;55.670;37.596;2023-06-14T18:00:00;0.00;;;0.00;;
51080;SDS011;37130;55.670;37.596;2023-06-14T18:02:37;0.00;;;0.00;;
51080;SDS011;37130;55.670;37.596;2023-06-14T18:05:05;0.00;;;0.00;;
51080;SDS011;37130;55.670;37.596;2023-06-14T18:07:32;0.00;;;0.00;;
51080;SDS011;37130;55.670;37.596;2023-06-14T18:10:00;0.00;;;0.00;;
51080;SDS011;37130;55.670;37.596;2023-06-14T18:12:28;0.00;;;0.00;;
51080;SDS011;37130;55.670;37.596;2023-06-14T18:14:56;0.00;;;0.00;;
51080;SDS011;37130;55.670;37.596;2023-06-14T18:17:23;0.00;;;0.00;;
51080;SDS011;37130;55.670;37.596;2023-06-14T18:19:51;0.00;;;0.00;;
51080;SDS011;37130;55.670;37.596;2023-06-14T18:22:19;0.00;;;0.00;;
51080;SDS011;37130;55.670;37.596;2023-06-14T18:24:47;0.00;;;0.00;;
51080;SDS011;37130;55.670;37.596;2023-06-14T18:27:15;0.00;;;0.00;;
51080;SDS011;37130;55.670;37.596;2023-06-14T18:29:42;0.00;;;0.00;;
51080;SDS011;37130;55.670;37.596;2023-06-14T18:32:09;0.00;;;0.00;;
51080;SDS011;37130;55.670;37.596;2023-06-14T18:34:37;0.00;;;0.00;;
51080;SDS011;37130;55.670;37.596;2023-06-14T18:37:04;0.00;;;0.00;;
51080;SDS011;37130;55.670;37.596;2023-06-14T18:39:32;0.00;;;0.00;;
51080;SDS011;37130;55.670;37.596;2023-06-14T18:42:00;0.00;;;0.00;;
51080;SDS011;37130;55.670;37.596;2023-06-14T18:44:28;0.00;;;0.00;;
51080;SDS011;37130;55.670;37.596;2023-06-14T18:46:55;0.00;;;0.00;;
51080;SDS011;37130;55.670;37.596;2023-06-14T18:49:23;0.00;;;0.00;;
51080;SDS011;37130;55.670;37.596;2023-06-14T18:51:50;0.00;;;0.00;;
51080;SDS011;37130;55.670;37.596;2023-06-14T18:54:17;0.00;;;0.00;;
51080;SDS011;37130;55.670;37.596;2023-06-14T18:56:45;0.00;;;0.00;;
51080;SDS011;37130;55.670;37.596;2023-06-14T18:59:12;0.00;;;0.00;;
51080;SDS011;37130;55.670;37.596;2023-06-14T19:01:40;0.00;;;0.00;;
51080;SDS011;37130;55.670;37.596;2023-06-14T19:04:07;0.00;;;0.00;;
51080;SDS011;37130;55.670;37.596;2023-06-14T19:06:35;0.00;;;0.00;;
51080;SDS011;37130;55.670;37.596;2023-06-14T19:09:02;0.00;;;0.00;;
51080;SDS011;37130;55.670;37.596;2023-06-14T19:11:31;0.00;;;0.00;;
51080;SDS011;37130;55.670;37.596;2023-06-14T19:13:58;0.00;;;0.00;;
51080;SDS011;37130;55.670;37.596;2023-06-14T19:16:26;0.00;;;0.00;;
51080;SDS011;37130;55.670;37.596;2023-06-14T19:18:53;0.00;;;0.00;;
51080;SDS011;37130;55.670;37.596;2023-06-14T19:21:21;0.00;;;0.00;;
51080;SDS011;37130;55.670;37.596;2023-06-14T19:23:48;0.00;;;0.00;;
51080;SDS011;37130;55.670;37.596;2023-06-14T19:26:16;0.00;;;0.00;;
51080;SDS011;37130;55.670;37.596;2023-06-14T19:28:44;0.00;;;0.00;;
51080;SDS011;37130;55.670;37.596;2023-06-14T19:31:11;0.00;;;0.00;;
51080;SDS011;37130;55.670;37.596;2023-06-14T19:33:38;0.00;;;0.00;;
51080;SDS011;37130;55.670;37.596;2023-06-14T19:36:06;0.00;;;0.00;;
51080;SDS011;37130;55.670;37.596;2023-06-14T19:38:33;0.00;;;0.00;;
51080;SDS011;37130;55.670;37.596;2023-06-14T19:41:01;0.00;;;0.00;;
51080;SDS011;37130;55.670;37.596;2023-06-14T19:43:29;0.00;;;0.00;;
51080;SDS011;37130;55.670;37.596;2023-06-14T19:45:57;0.00;;;0.00;;
51080;SDS011;37130;55.670;37.596;2023-06-14T19:48:24;0.00;;;0.00;;
51080;SDS011;37130;55.670;37.596;2023-06-14T19:50:52;0.00;;;0.00;;
51080;SDS011;37130;55.670;37.596;2023-06-14T19:53:19;0.00;;;0.00;;
51080;SDS011;37130;55.670;37.596;2023-06-14T19:55:47;0.00;;;0.00;;
51080;SDS011;37130;55.670;37.596;2023-06-14T19:58:15;0.00;;;0.00;;
51080;SDS011;37130;55.670;37.596;2023-06-14T20:00:43;0.00;;;0.00;;
51080;SDS011;37130;55.670;37.596;2023-06-14T20:03:11;0.00;;;0.00;;
51080;SDS011;37130;55.670;37.596;2023-06-14T20:05:39;0.00;;;0.00;;
51080;SDS011;37130;55.670;37.596;2023-06-14T20:08:08;0.00;;;0.00;;
51080;SDS011;37130;55.670;37.596;2023-06-14T20:10:36;0.00;;;0.00;;
51080;SDS011;37130;55.670;37.596;2023-06-14T20:13:03;0.00;;;0.00;;
51080;SDS011;37130;55.670;37.596;2023-06-14T20:15:32;0.00;;;0.00;;
51080;SDS011;37130;55.670;37.596;2023-06-14T20:17:59;0.00;;;0.00;;
51080;SDS011;37130;55.670;37.596;2023-06-14T20:20:27;0.00;;;0.00;;
51080;SDS011;37130;55.670;37.596;2023-06-14T20:22:54;0.00;;;0.00;;
51080;SDS011;37130;55.670;37.596;2023-06-14T20:25:22;0.00;;;0.00;;
51080;SDS011;37130;55.670;37.596;2023-06-14T20:27:49;0.00;;;0.00;;
51080;SDS011;37130;55.670;37.596;2023-06-14T20:30:17;0.00;;;0.00;;
51080;SDS011;37130;55.670;37.596;2023-06-14T20:32:45;0.00;;;0.00;;
51080;SDS011;37130;55.670;37.596;2023-06-14T20:35:12;0.00;;;0.00;;
51080;SDS011;37130;55.670;37.596;2023-06-14T20:37:40;0.00;;;0.00;;
51080;SDS011;37130;55.670;37.596;2023-06-14T20:40:08;0.00;;;0.00;;
51080;SDS011;37130;55.670;37.596;2023-06-14T20:42:46;0.00;;;0.00;;
51080;SDS011;37130;55.670;37.596;2023-06-14T20:45:15;0.00;;;0.00;;
51080;SDS011;37130;55.670;37.596;2023-06-14T20:47:43;0.00;;;0.00;;
51080;SDS011;37130;55.670;37.596;2023-06-14T20:50:11;0.00;;;0.00;;
51080;SDS011;37130;55.670;37.596;2023-06-14T20:52:39;0.00;;;0.00;;
51080;SDS011;37130;55.670;37.596;2023-06-14T20:55:07;0.00;;;0.00;;
51080;SDS011;37130;55.670;37.596;2023-06-14T20:57:35;0.00;;;0.00;;
51080;SDS011;37130;55.670;37.596;2023-06-14T21:00:03;0.00;;;0.00;;
51080;SDS011;37130;55.670;37.596;2023-06-14T21:02:38;0.00;;;0.00;;
51080;SDS011;37130;55.670;37.596;2023-06-14T21:05:06;0.00;;;0.00;;
51080;SDS011;37130;55.670;37.596;2023-06-14T21:07:37;0.00;;;0.00;;
51080;SDS011;37130;55.670;37.596;2023-06-14T21:10:05;0.00;;;0.00;;
51080;SDS011;37130;55.670;37.596;2023-06-14T21:12:33;0.00;;;0.00;;
51080;SDS011;37130;55.670;37.596;2023-06-14T21:15:00;0.00;;;0.00;;
51080;SDS011;37130;55.670;37.596;2023-06-14T21:17:29;0.00;;;0.00;;
51080;SDS011;37130;55.670;37.596;2023-06-14T21:19:57;0.00;;;0.00;;
51080;SDS011;37130;55.670;37.596;2023-06-14T21:22:24;0.00;;;0.00;;
51080;SDS011;37130;55.670;37.596;2023-06-14T21:24:51;0.00;;;0.00;;
51080;SDS011;37130;55.670;37.596;2023-06-14T21:27:19;0.00;;;0.00;;
51080;SDS011;37130;55.670;37.596;2023-06-14T21:29:46;0.00;;;0.00;;
51080;SDS011;37130;55.670;37.596;2023-06-14T21:32:16;0.00;;;0.00;;
51080;SDS011;37130;55.670;37.596;2023-06-14T21:34:44;0.00;;;0.00;;
51080;SDS011;37130;55.670;37.596;2023-06-14T21:37:12;0.00;;;0.00;;